createdAt,value
2018-12-26T00:00:44.241Z,97.21
2018-12-26T00:03:13.111Z,97.44
2018-12-26T00:05:38.978Z,97.34
2018-12-26T00:08:05.845Z,97.15
2018-12-26T00:10:31.890Z,97.59
2018-12-26T00:12:57.995Z,97.54
2018-12-26T00:15:23.969Z,97.74
2018-12-26T00:17:50.110Z,97.89
2018-12-26T00:20:19.391Z,97.54
2018-12-26T00:22:45.490Z,97.20
2018-12-26T00:25:14.209Z,97.10
2018-12-26T00:27:40.159Z,96.43
2018-12-26T00:30:10.041Z,96.75
2018-12-26T00:32:35.866Z,96.86
2018-12-26T00:35:02.927Z,96.98
2018-12-26T00:37:29.031Z,97.52
2018-12-26T00:39:57.526Z,97.57
2018-12-26T00:42:23.648Z,97.47
2018-12-26T00:44:49.906Z,97.35
2018-12-26T00:47:15.789Z,97.86
2018-12-26T00:49:45.236Z,97.49
2018-12-26T00:52:11.088Z,97.28
2018-12-26T00:54:36.957Z,96.98
2018-12-26T00:57:04.045Z,96.31
2018-12-26T00:59:29.856Z,96.23
2018-12-26T01:02:00.252Z,96.93
2018-12-26T01:04:26.363Z,97.58
2018-12-26T01:06:55.483Z,98.34
2018-12-26T01:09:21.354Z,98.95
2018-12-26T01:11:48.602Z,99.36
2018-12-26T01:14:14.472Z,99.83
2018-12-26T01:16:45.657Z,99.99
2018-12-26T01:19:11.502Z,100.00
2018-12-26T01:21:37.742Z,100.00
2018-12-26T01:24:03.837Z,99.95
2018-12-26T01:26:29.677Z,99.57
2018-12-26T01:28:55.495Z,100.00
2018-12-26T01:31:21.634Z,100.00
2018-12-26T01:33:50.801Z,100.00
2018-12-26T01:36:16.929Z,100.00
2018-12-26T01:38:45.579Z,100.00
2018-12-26T01:41:11.443Z,99.83
2018-12-26T01:43:40.383Z,99.98
2018-12-26T01:46:06.496Z,100.00
2018-12-26T01:48:34.209Z,100.00
2018-12-26T01:51:00.297Z,100.00
2018-12-26T01:53:29.068Z,100.00
2018-12-26T01:55:55.148Z,100.00
2018-12-26T01:58:21.196Z,100.00
2018-12-26T02:00:47.085Z,100.00
2018-12-26T02:03:12.941Z,100.00
2018-12-26T02:05:41.800Z,100.00
2018-12-26T02:08:07.653Z,100.00
2018-12-26T02:10:34.788Z,100.00
2018-12-26T02:13:00.629Z,100.00
2018-12-26T02:15:30.930Z,100.00
2018-12-26T02:17:57.058Z,100.00
2018-12-26T02:20:24.974Z,100.00
2018-12-26T02:22:51.046Z,100.00
2018-12-26T02:25:19.684Z,100.00
2018-12-26T02:27:45.520Z,100.00
2018-12-26T02:30:14.455Z,100.00
2018-12-26T02:32:40.300Z,100.00
2018-12-26T02:35:06.210Z,100.00
2018-12-26T02:37:32.189Z,100.00
2018-12-26T02:39:58.025Z,100.00
2018-12-26T02:42:27.146Z,100.00
2018-12-26T02:44:54.779Z,100.00
2018-12-26T02:47:21.307Z,100.00
2018-12-26T02:49:47.400Z,100.00
2018-12-26T02:52:16.288Z,100.00
2018-12-26T02:54:42.158Z,100.00
2018-12-26T02:57:10.810Z,100.00
2018-12-26T02:59:36.698Z,100.00
2018-12-26T03:02:05.305Z,100.00
2018-12-26T03:04:31.121Z,100.00
2018-12-26T03:06:59.764Z,100.00
2018-12-26T03:09:25.840Z,100.00
2018-12-26T03:11:51.820Z,100.00
2018-12-26T03:14:17.671Z,100.00
2018-12-26T03:16:46.736Z,100.00
2018-12-26T03:19:12.574Z,100.00
2018-12-26T03:21:38.674Z,100.00
2018-12-26T03:24:08.001Z,100.00
2018-12-26T03:26:33.847Z,100.00
2018-12-26T03:29:02.975Z,100.00
2018-12-26T03:31:30.153Z,100.00
2018-12-26T03:33:56.272Z,100.00
2018-12-26T03:36:22.235Z,100.00
2018-12-26T03:38:49.411Z,100.00
2018-12-26T03:41:15.255Z,100.00
2018-12-26T03:43:44.336Z,100.00
2018-12-26T03:46:10.476Z,100.00
2018-12-26T03:48:36.306Z,100.00
2018-12-26T03:51:02.163Z,100.00
2018-12-26T03:53:28.196Z,100.00
2018-12-26T03:55:57.149Z,100.00
2018-12-26T03:58:22.989Z,100.00
2018-12-26T04:00:51.893Z,100.00
2018-12-26T04:03:17.725Z,100.00
2018-12-26T04:05:46.557Z,100.00
2018-12-26T04:08:12.698Z,99.26
2018-12-26T04:10:41.686Z,99.60
2018-12-26T04:13:07.530Z,100.00
2018-12-26T04:15:36.725Z,100.00
2018-12-26T04:18:02.575Z,99.77
2018-12-26T04:20:31.269Z,99.92
2018-12-26T04:22:57.469Z,100.00
2018-12-26T04:25:23.320Z,99.51
2018-12-26T04:27:49.484Z,99.56
2018-12-26T04:30:15.303Z,99.70
2018-12-26T04:32:44.094Z,99.91
2018-12-26T04:35:09.867Z,99.72
2018-12-26T04:37:38.795Z,99.96
2018-12-26T04:40:04.830Z,99.67
2018-12-26T04:42:30.721Z,99.54
2018-12-26T04:44:56.571Z,99.54
2018-12-26T04:47:27.353Z,99.55
2018-12-26T04:49:53.177Z,99.01
2018-12-26T04:52:21.924Z,98.91
2018-12-26T04:54:47.700Z,99.61
2018-12-26T04:57:15.010Z,99.92
2018-12-26T04:59:41.175Z,100.00
2018-12-26T05:02:06.972Z,100.00
2018-12-26T05:04:33.034Z,100.00
2018-12-26T05:06:58.837Z,100.00
2018-12-26T05:09:27.446Z,100.00
2018-12-26T05:11:53.261Z,100.00
2018-12-26T05:14:22.167Z,100.00
2018-12-26T05:16:48.156Z,100.00
2018-12-26T05:19:17.174Z,100.00
2018-12-26T05:21:42.993Z,100.00
2018-12-26T05:24:11.897Z,100.00
2018-12-26T05:26:37.766Z,100.00
2018-12-26T05:29:06.759Z,100.00
2018-12-26T05:31:32.648Z,100.00
2018-12-26T05:34:01.474Z,100.00
2018-12-26T05:36:27.296Z,100.00
2018-12-26T05:38:53.471Z,100.00
2018-12-26T05:41:19.350Z,100.00
2018-12-26T05:43:45.157Z,100.00
2018-12-26T05:46:14.609Z,100.00
2018-12-26T05:48:40.758Z,100.00
2018-12-26T05:51:06.561Z,100.00
2018-12-26T05:53:32.713Z,100.00
2018-12-26T05:56:01.904Z,100.00
2018-12-26T05:58:28.040Z,100.00
2018-12-26T06:00:57.243Z,99.13
2018-12-26T06:03:23.345Z,99.59
2018-12-26T06:05:52.247Z,100.00
2018-12-26T06:08:18.332Z,100.00
2018-12-26T06:10:45.506Z,100.00
2018-12-26T06:13:11.332Z,100.00
2018-12-26T06:15:37.176Z,100.00
2018-12-26T06:18:03.048Z,100.00
2018-12-26T06:20:28.888Z,100.00
2018-12-26T06:22:59.539Z,100.00
2018-12-26T06:25:25.394Z,100.00
2018-12-26T06:27:54.323Z,100.00
2018-12-26T06:30:20.268Z,100.00
2018-12-26T06:32:49.173Z,100.00
2018-12-26T06:35:15.009Z,100.00
2018-12-26T06:37:43.888Z,100.00
2018-12-26T06:40:10.048Z,100.00
2018-12-26T06:42:36.006Z,100.00
2018-12-26T06:45:02.247Z,100.00
2018-12-26T06:47:32.875Z,99.87
2018-12-26T06:49:58.976Z,98.92
2018-12-26T06:52:24.836Z,99.84
2018-12-26T06:54:50.684Z,100.00
2018-12-26T06:57:16.539Z,100.00
2018-12-26T06:59:42.497Z,100.00
2018-12-26T07:02:09.381Z,100.00
2018-12-26T07:04:38.219Z,99.72
2018-12-26T07:07:04.330Z,99.78
2018-12-26T07:09:33.220Z,100.00
2018-12-26T07:11:59.349Z,100.00
2018-12-26T07:14:28.176Z,100.00
2018-12-26T07:16:54.026Z,100.00
2018-12-26T07:19:22.971Z,100.00
2018-12-26T07:21:48.851Z,100.00
2018-12-26T07:24:17.980Z,100.00
2018-12-26T07:26:43.832Z,100.00
2018-12-26T07:29:09.650Z,100.00
2018-12-26T07:31:35.479Z,99.89
2018-12-26T07:34:03.394Z,99.62
2018-12-26T07:36:29.380Z,99.05
2018-12-26T07:38:55.197Z,98.89
2018-12-26T07:41:24.200Z,99.20
2018-12-26T07:43:50.035Z,99.03
2018-12-26T07:46:18.770Z,98.64
2018-12-26T07:48:44.643Z,98.79
2018-12-26T07:51:13.500Z,98.37
2018-12-26T07:53:39.616Z,97.52
2018-12-26T07:56:06.871Z,97.37
2018-12-26T07:58:33.476Z,96.03
2018-12-26T08:01:03.097Z,96.71
2018-12-26T08:03:29.180Z,96.81
2018-12-26T08:05:55.084Z,97.38
2018-12-26T08:08:20.945Z,95.01
2018-12-26T08:10:46.728Z,95.48
2018-12-26T08:13:16.090Z,95.81
2018-12-26T08:15:42.359Z,94.64
2018-12-26T08:18:08.203Z,93.11
2018-12-26T08:20:34.043Z,90.87
2018-12-26T08:23:04.881Z,84.52
2018-12-26T08:25:30.760Z,79.38
2018-12-26T08:27:59.477Z,76.21
2018-12-26T08:30:25.541Z,73.76
2018-12-26T08:32:54.160Z,66.58
2018-12-26T08:35:20.047Z,62.88
2018-12-26T08:37:48.901Z,61.20
2018-12-26T08:40:14.729Z,60.54
2018-12-26T08:42:40.578Z,59.69
2018-12-26T08:45:06.418Z,58.33
2018-12-26T08:47:32.227Z,56.37
2018-12-26T08:50:02.801Z,57.16
2018-12-26T08:52:28.688Z,56.02
2018-12-26T08:54:54.531Z,52.82
2018-12-26T08:57:20.335Z,51.35
2018-12-26T08:59:48.953Z,51.99
2018-12-26T09:02:15.520Z,54.71
2018-12-26T09:04:44.897Z,56.39
2018-12-26T09:07:10.737Z,55.19
2018-12-26T09:09:39.492Z,51.76
2018-12-26T09:12:05.307Z,50.37
2018-12-26T09:14:34.227Z,47.98
2018-12-26T09:17:00.098Z,49.76
2018-12-26T09:19:25.916Z,46.96
2018-12-26T09:21:51.768Z,49.09
2018-12-26T09:24:17.700Z,47.42
2018-12-26T09:26:46.543Z,47.31
2018-12-26T09:29:12.402Z,47.00
2018-12-26T09:31:38.852Z,47.25
2018-12-26T09:34:05.071Z,51.83
2018-12-26T09:36:34.352Z,55.46
2018-12-26T09:39:00.196Z,58.23
2018-12-26T09:41:28.769Z,59.40
2018-12-26T09:43:54.736Z,60.66
2018-12-26T09:46:25.160Z,58.92
2018-12-26T09:48:51.322Z,57.07
2018-12-26T09:51:17.440Z,56.37
2018-12-26T09:53:43.302Z,55.51
2018-12-26T09:56:09.963Z,56.83
2018-12-26T09:58:35.807Z,50.44
2018-12-26T10:01:01.607Z,50.32
2018-12-26T10:03:30.467Z,49.67
2018-12-26T10:05:56.293Z,49.59
2018-12-26T10:08:25.234Z,50.81
2018-12-26T10:10:51.328Z,49.97
2018-12-26T10:13:18.462Z,51.79
2018-12-26T10:15:44.333Z,49.57
2018-12-26T10:18:13.415Z,47.19
2018-12-26T10:20:39.494Z,45.92
2018-12-26T10:23:08.527Z,45.11
2018-12-26T10:25:34.659Z,43.96
2018-12-26T10:28:03.860Z,43.42
2018-12-26T10:30:29.964Z,44.67
2018-12-26T10:32:55.905Z,45.94
2018-12-26T10:35:21.737Z,45.94
2018-12-26T10:37:47.559Z,44.22
2018-12-26T10:40:14.573Z,48.46
2018-12-26T10:42:40.430Z,46.52
2018-12-26T10:45:10.099Z,48.37
2018-12-26T10:47:36.300Z,50.64
2018-12-26T10:50:07.572Z,49.23
2018-12-26T10:52:33.506Z,49.36
2018-12-26T10:54:59.310Z,55.65
2018-12-26T10:57:25.166Z,54.80
2018-12-26T10:59:53.559Z,50.02
2018-12-26T11:02:19.377Z,52.94
2018-12-26T11:04:48.842Z,51.58
2018-12-26T11:07:14.800Z,54.01
2018-12-26T11:09:40.606Z,57.32
2018-12-26T11:12:07.160Z,58.58
2018-12-26T11:14:33.298Z,58.78
2018-12-26T11:17:02.411Z,57.15
2018-12-26T11:19:28.449Z,58.15
2018-12-26T11:21:54.370Z,59.07
2018-12-26T11:24:20.509Z,58.45
2018-12-26T11:26:51.127Z,56.96
2018-12-26T11:29:18.770Z,57.40
2018-12-26T11:31:44.911Z,58.58
2018-12-26T11:34:10.725Z,58.71
2018-12-26T11:36:39.688Z,59.78
2018-12-26T11:39:05.639Z,57.28
2018-12-26T11:41:34.542Z,58.10
2018-12-26T11:44:00.403Z,58.35
2018-12-26T11:46:26.340Z,60.31
2018-12-26T11:48:52.226Z,60.31
2018-12-26T11:51:18.065Z,65.02
2018-12-26T11:53:44.918Z,64.38
2018-12-26T11:56:10.770Z,59.70
2018-12-26T11:58:40.238Z,62.12
2018-12-26T12:01:06.307Z,63.02
2018-12-26T12:03:34.985Z,61.99
2018-12-26T12:06:01.092Z,61.87
2018-12-26T12:08:29.136Z,61.89
2018-12-26T12:10:55.830Z,63.26
2018-12-26T12:13:23.825Z,62.76
2018-12-26T12:15:49.670Z,63.33
2018-12-26T12:18:18.505Z,65.64
2018-12-26T12:20:44.315Z,63.52
2018-12-26T12:23:10.162Z,63.85
2018-12-26T12:25:35.981Z,63.62
2018-12-26T12:28:01.818Z,65.82
2018-12-26T12:30:30.678Z,62.66
2018-12-26T12:32:56.631Z,59.74
2018-12-26T12:35:27.205Z,61.73
2018-12-26T12:37:53.049Z,64.85
2018-12-26T12:40:22.116Z,61.25
2018-12-26T12:42:48.305Z,61.83
2018-12-26T12:45:15.128Z,65.26
2018-12-26T12:47:41.196Z,64.34
2018-12-26T12:50:09.786Z,65.14
2018-12-26T12:52:35.616Z,61.82
2018-12-26T12:55:04.348Z,60.22
2018-12-26T12:57:30.166Z,59.61
2018-12-26T12:59:56.134Z,58.72
2018-12-26T13:02:22.079Z,61.06
2018-12-26T13:04:48.119Z,64.02
2018-12-26T13:07:16.760Z,67.51
2018-12-26T13:09:42.593Z,67.10
2018-12-26T13:12:11.557Z,66.22
2018-12-26T13:14:37.733Z,62.24
2018-12-26T13:17:06.351Z,62.18
2018-12-26T13:19:32.274Z,63.91
2018-12-26T13:22:01.394Z,60.86
2018-12-26T13:24:27.220Z,62.56
2018-12-26T13:26:56.248Z,63.20
2018-12-26T13:29:22.383Z,65.22
2018-12-26T13:31:51.295Z,64.47
2018-12-26T13:34:17.109Z,65.94
2018-12-26T13:36:43.234Z,63.46
2018-12-26T13:39:09.092Z,65.54
2018-12-26T13:41:34.941Z,68.31
2018-12-26T13:44:03.770Z,69.37
2018-12-26T13:46:33.677Z,65.97
2018-12-26T13:48:57.684Z,65.16
2018-12-26T13:51:23.534Z,64.46
2018-12-26T13:53:52.450Z,64.40
2018-12-26T13:56:18.290Z,64.34
2018-12-26T13:58:47.137Z,67.12
2018-12-26T14:01:12.937Z,66.67
2018-12-26T14:03:41.580Z,66.36
2018-12-26T14:06:07.711Z,64.71
2018-12-26T14:08:35.568Z,65.06
2018-12-26T14:11:01.403Z,65.79
2018-12-26T14:13:27.340Z,69.29
2018-12-26T14:15:53.442Z,67.04
2018-12-26T14:18:19.325Z,65.62
2018-12-26T14:20:46.550Z,64.39
2018-12-26T14:23:12.634Z,63.65
2018-12-26T14:25:41.519Z,62.89
2018-12-26T14:28:07.328Z,62.41
2018-12-26T14:30:35.967Z,63.33
2018-12-26T14:33:01.784Z,63.26
2018-12-26T14:35:30.205Z,66.10
2018-12-26T14:37:56.038Z,65.71
2018-12-26T14:40:27.861Z,63.91
2018-12-26T14:42:55.684Z,65.43
2018-12-26T14:45:21.701Z,66.47
2018-12-26T14:47:47.530Z,69.17
2018-12-26T14:50:13.509Z,68.63
2018-12-26T14:52:39.608Z,67.47
2018-12-26T14:55:05.469Z,66.46
2018-12-26T14:57:34.582Z,66.68
2018-12-26T15:00:00.572Z,67.05
2018-12-26T15:02:26.405Z,67.50
2018-12-26T15:04:53.018Z,67.93
2018-12-26T15:07:21.924Z,66.96
2018-12-26T15:09:47.723Z,67.27
2018-12-26T15:12:33.435Z,67.53
2018-12-26T15:14:59.250Z,67.75
2018-12-26T15:17:25.368Z,68.56
2018-12-26T15:19:51.173Z,69.16
2018-12-26T15:22:17.016Z,70.11
2018-12-26T15:24:42.870Z,71.18
2018-12-26T15:27:08.736Z,72.32
2018-12-26T15:29:34.554Z,73.70
2018-12-26T15:32:00.407Z,75.81
2018-12-26T15:34:26.310Z,76.72
2018-12-26T15:36:52.128Z,77.76
2018-12-26T15:39:17.971Z,80.08
2018-12-26T15:41:43.917Z,80.08
2018-12-26T15:44:09.770Z,80.70
2018-12-26T15:46:35.582Z,80.63
2018-12-26T15:49:01.437Z,81.23
2018-12-26T15:51:28.597Z,81.49
2018-12-26T15:53:56.117Z,81.83
2018-12-26T15:56:21.985Z,81.97
2018-12-26T15:58:53.180Z,82.09
2018-12-26T16:01:19.036Z,82.07
2018-12-26T16:03:44.882Z,82.55
2018-12-26T16:06:10.977Z,83.01
2018-12-26T16:08:37.157Z,83.37
2018-12-26T16:11:03.088Z,83.64
2018-12-26T16:13:28.959Z,83.25
2018-12-26T16:15:57.040Z,83.04
2018-12-26T16:18:22.862Z,83.52
2018-12-26T16:20:53.518Z,84.07
2018-12-26T16:23:19.352Z,84.52
2018-12-26T16:25:46.345Z,83.98
2018-12-26T16:28:12.162Z,84.17
2018-12-26T16:30:46.082Z,84.07
2018-12-26T16:33:14.640Z,84.28
2018-12-26T16:35:40.486Z,84.64
2018-12-26T16:38:06.304Z,84.35
2018-12-26T16:40:32.182Z,84.66
2018-12-26T16:42:58.006Z,85.04
2018-12-26T16:45:24.245Z,85.02
2018-12-26T16:47:50.117Z,85.37
2018-12-26T16:50:15.923Z,85.19
2018-12-26T16:52:44.857Z,84.98
2018-12-26T16:55:10.624Z,84.62
2018-12-26T16:57:39.616Z,84.73
2018-12-26T17:00:10.515Z,85.06
2018-12-26T17:02:36.350Z,85.99
2018-12-26T17:05:02.792Z,85.68
2018-12-26T17:07:28.892Z,85.16
2018-12-26T17:09:54.739Z,85.09
2018-12-26T17:12:25.651Z,85.05
2018-12-26T17:14:51.508Z,86.21
2018-12-26T17:17:17.318Z,85.93
2018-12-26T17:19:43.484Z,86.55
2018-12-26T17:22:09.569Z,86.89
2018-12-26T17:24:35.456Z,87.94
2018-12-26T17:27:01.240Z,87.61
2018-12-26T17:29:29.869Z,87.46
2018-12-26T17:31:55.698Z,87.04
2018-12-26T17:34:24.431Z,87.81
2018-12-26T17:36:50.278Z,87.49
2018-12-26T17:39:19.260Z,87.56
2018-12-26T17:41:45.365Z,87.50
2018-12-26T17:44:14.699Z,87.82
2018-12-26T17:46:41.371Z,88.38
2018-12-26T17:49:07.499Z,88.12
2018-12-26T17:51:33.316Z,88.03
2018-12-26T17:54:02.947Z,88.09
2018-12-26T17:56:32.673Z,87.41
2018-12-26T17:59:08.664Z,87.94
2018-12-26T18:01:53.411Z,88.19
2018-12-26T18:04:19.469Z,87.86
2018-12-26T18:06:45.323Z,88.39
2018-12-26T18:09:11.124Z,88.31
2018-12-26T18:11:37.279Z,88.48
2018-12-26T18:14:03.204Z,88.35
2018-12-26T18:16:29.049Z,88.35
2018-12-26T18:18:54.866Z,88.64
2018-12-26T18:21:20.908Z,89.45
2018-12-26T18:23:46.716Z,90.08
2018-12-26T18:26:12.942Z,90.26
2018-12-26T18:28:39.480Z,89.85
2018-12-26T18:31:05.340Z,89.70
2018-12-26T18:33:31.940Z,89.56
2018-12-26T18:35:57.993Z,89.71
2018-12-26T18:38:23.890Z,90.43
2018-12-26T18:40:49.751Z,89.68
2018-12-26T18:43:16.055Z,88.52
2018-12-26T18:45:42.224Z,87.79
2018-12-26T18:48:08.345Z,88.08
2018-12-26T18:50:34.189Z,88.90
2018-12-26T18:53:00.366Z,89.41
2018-12-26T18:55:26.215Z,89.88
2018-12-26T18:57:52.038Z,89.55
2018-12-26T19:00:17.898Z,89.57
2018-12-26T19:02:44.034Z,89.82
2018-12-26T19:05:09.926Z,90.10
2018-12-26T19:07:36.036Z,89.95
2018-12-26T19:10:03.166Z,89.58
2018-12-26T19:12:29.105Z,89.51
2018-12-26T19:14:54.998Z,89.05
2018-12-26T19:17:20.853Z,88.81
2018-12-26T19:19:49.008Z,89.40
2018-12-26T19:22:14.833Z,89.22
2018-12-26T19:24:40.987Z,89.26
2018-12-26T19:27:06.825Z,90.07
2018-12-26T19:29:32.711Z,89.85
2018-12-26T19:31:58.838Z,89.50
2018-12-26T19:34:27.696Z,88.74
2018-12-26T19:36:53.863Z,89.43
2018-12-26T19:39:23.081Z,89.58
2018-12-26T19:41:48.905Z,89.51
2018-12-26T19:44:14.721Z,89.55
2018-12-26T19:46:40.588Z,89.71
2018-12-26T19:49:06.516Z,89.45
2018-12-26T19:51:35.201Z,89.70
2018-12-26T19:54:01.072Z,89.76
2018-12-26T19:56:30.108Z,89.81
2018-12-26T19:58:55.940Z,89.53
2018-12-26T20:01:24.786Z,89.44
2018-12-26T20:03:50.640Z,89.54
2018-12-26T20:06:19.230Z,89.47
2018-12-26T20:08:45.355Z,89.53
2018-12-26T20:11:14.247Z,90.02
2018-12-26T20:13:40.356Z,90.25
2018-12-26T20:16:07.526Z,90.29
2018-12-26T20:18:33.655Z,89.92
2018-12-26T20:20:59.804Z,90.23
2018-12-26T20:23:25.632Z,90.27
2018-12-26T20:25:51.466Z,90.16
2018-12-26T20:28:20.077Z,90.00
2018-12-26T20:30:46.168Z,90.49
2018-12-26T20:33:15.219Z,90.76
2018-12-26T20:35:41.325Z,90.64
2018-12-26T20:38:10.198Z,90.73
2018-12-26T20:40:36.034Z,90.80
2018-12-26T20:43:04.651Z,90.54
2018-12-26T20:45:30.579Z,90.16
2018-12-26T20:47:59.435Z,89.91
2018-12-26T20:50:25.359Z,89.52
2018-12-26T20:52:53.212Z,89.93
2018-12-26T20:55:19.070Z,90.02
2018-12-26T20:57:45.112Z,89.92
2018-12-26T21:00:10.982Z,89.90
2018-12-26T21:02:36.831Z,89.85
2018-12-26T21:05:06.654Z,89.95
2018-12-26T21:07:33.082Z,89.99
2018-12-26T21:10:04.163Z,89.94
2018-12-26T21:12:30.013Z,90.21
2018-12-26T21:14:55.887Z,90.38
2018-12-26T21:17:22.011Z,90.35
2018-12-26T21:19:51.053Z,90.69
2018-12-26T21:22:17.213Z,90.44
2018-12-26T21:24:46.520Z,90.56
2018-12-26T21:27:12.641Z,90.52
2018-12-26T21:29:38.550Z,90.42
2018-12-26T21:32:04.522Z,90.33
2018-12-26T21:34:30.392Z,90.36
2018-12-26T21:36:56.254Z,90.35
2018-12-26T21:39:22.078Z,90.19
2018-12-26T21:41:50.839Z,90.11
2018-12-26T21:44:16.681Z,90.19
2018-12-26T21:46:45.547Z,89.88
2018-12-26T21:49:11.820Z,90.04
2018-12-26T21:51:41.698Z,91.25
2018-12-26T21:54:07.666Z,91.40
2018-12-26T21:56:36.741Z,91.27
2018-12-26T21:59:02.600Z,91.15
2018-12-26T22:01:31.373Z,90.96
2018-12-26T22:03:57.659Z,90.93
2018-12-26T22:06:23.734Z,90.69
2018-12-26T22:08:49.978Z,90.65
2018-12-26T22:11:15.803Z,90.71
2018-12-26T22:13:41.643Z,90.56
2018-12-26T22:16:07.801Z,90.65
2018-12-26T22:18:37.366Z,91.04
2018-12-26T22:21:03.566Z,90.67
2018-12-26T22:23:32.667Z,90.53
2018-12-26T22:25:58.486Z,90.74
2018-12-26T22:28:27.379Z,90.54
2018-12-26T22:30:53.231Z,90.33
2018-12-26T22:33:21.885Z,90.45
2018-12-26T22:35:47.710Z,90.09
2018-12-26T22:38:16.364Z,90.02
2018-12-26T22:40:42.509Z,89.97
2018-12-26T22:43:11.511Z,89.25
2018-12-26T22:45:43.834Z,89.59
2018-12-26T22:48:05.419Z,89.94
2018-12-26T22:50:31.513Z,89.81
2018-12-26T22:52:57.468Z,89.98
2018-12-26T22:55:23.290Z,90.05
2018-12-26T22:57:49.263Z,90.19
2018-12-26T23:00:19.775Z,90.62
2018-12-26T23:02:45.637Z,90.63
2018-12-26T23:05:11.451Z,90.59
2018-12-26T23:07:37.285Z,90.82
2018-12-26T23:10:05.991Z,90.90
2018-12-26T23:12:32.156Z,91.17
2018-12-26T23:15:00.820Z,91.36
2018-12-26T23:17:26.697Z,90.98
2018-12-26T23:19:55.913Z,90.78
2018-12-26T23:22:21.732Z,90.68
2018-12-26T23:24:48.072Z,90.39
2018-12-26T23:27:14.370Z,90.20
2018-12-26T23:29:40.495Z,90.13
2018-12-26T23:32:06.360Z,90.04
2018-12-26T23:34:32.481Z,90.18
2018-12-26T23:37:01.099Z,89.33
2018-12-26T23:39:27.048Z,88.36
2018-12-26T23:41:55.865Z,88.64
2018-12-26T23:44:21.703Z,89.18
2018-12-26T23:46:50.309Z,89.40
2018-12-26T23:49:16.160Z,89.70
2018-12-26T23:51:45.022Z,89.63
2018-12-26T23:54:11.205Z,90.10
2018-12-26T23:56:40.073Z,90.06
2018-12-26T23:59:05.906Z,89.96
